sensor_id;sensor_type;location;lat;lon;timestamp;P1;durP1;ratioP1;P2;durP2;ratioP2
45322;SDS011;31382;50.200;8.674;2022-08-21T00:01:57;4.70;;;1.73;;
45322;SDS011;31382;50.200;8.674;2022-08-21T00:06:59;6.15;;;1.60;;
45322;SDS011;31382;50.200;8.674;2022-08-21T00:12:01;4.28;;;1.60;;
45322;SDS011;31382;50.200;8.674;2022-08-21T00:17:03;4.68;;;1.77;;
45322;SDS011;31382;50.200;8.674;2022-08-21T00:22:06;6.60;;;1.88;;
45322;SDS011;31382;50.200;8.674;2022-08-21T00:27:07;4.60;;;1.65;;
45322;SDS011;31382;50.200;8.674;2022-08-21T00:32:09;4.93;;;1.85;;
45322;SDS011;31382;50.200;8.674;2022-08-21T00:37:11;4.88;;;1.98;;
45322;SDS011;31382;50.200;8.674;2022-08-21T00:42:13;4.50;;;1.92;;
45322;SDS011;31382;50.200;8.674;2022-08-21T00:47:16;8.07;;;3.38;;
45322;SDS011;31382;50.200;8.674;2022-08-21T00:52:21;7.40;;;3.03;;
45322;SDS011;31382;50.200;8.674;2022-08-21T00:57:26;6.70;;;2.20;;
45322;SDS011;31382;50.200;8.674;2022-08-21T01:02:31;3.97;;;2.30;;
45322;SDS011;31382;50.200;8.674;2022-08-21T01:07:33;7.78;;;2.75;;
45322;SDS011;31382;50.200;8.674;2022-08-21T01:12:34;3.67;;;2.33;;
45322;SDS011;31382;50.200;8.674;2022-08-21T01:17:37;5.85;;;2.55;;
45322;SDS011;31382;50.200;8.674;2022-08-21T01:22:39;4.80;;;2.80;;
45322;SDS011;31382;50.200;8.674;2022-08-21T01:27:41;4.53;;;2.17;;
45322;SDS011;31382;50.200;8.674;2022-08-21T01:32:43;6.15;;;2.70;;
45322;SDS011;31382;50.200;8.674;2022-08-21T01:37:45;6.10;;;2.25;;
45322;SDS011;31382;50.200;8.674;2022-08-21T01:42:48;5.53;;;3.25;;
45322;SDS011;31382;50.200;8.674;2022-08-21T01:47:49;9.27;;;3.22;;
45322;SDS011;31382;50.200;8.674;2022-08-21T01:52:51;5.00;;;2.10;;
45322;SDS011;31382;50.200;8.674;2022-08-21T01:57:53;8.60;;;2.30;;
45322;SDS011;31382;50.200;8.674;2022-08-21T02:02:55;4.60;;;2.42;;
45322;SDS011;31382;50.200;8.674;2022-08-21T02:07:57;7.40;;;2.63;;
45322;SDS011;31382;50.200;8.674;2022-08-21T02:12:59;7.78;;;3.03;;
45322;SDS011;31382;50.200;8.674;2022-08-21T02:18:02;7.93;;;3.10;;
45322;SDS011;31382;50.200;8.674;2022-08-21T02:23:07;14.30;;;4.53;;
45322;SDS011;31382;50.200;8.674;2022-08-21T02:28:10;13.05;;;4.40;;
45322;SDS011;31382;50.200;8.674;2022-08-21T02:33:13;6.13;;;3.33;;
45322;SDS011;31382;50.200;8.674;2022-08-21T02:38:17;5.57;;;3.03;;
45322;SDS011;31382;50.200;8.674;2022-08-21T02:43:24;6.05;;;2.33;;
45322;SDS011;31382;50.200;8.674;2022-08-21T02:48:28;6.05;;;2.88;;
45322;SDS011;31382;50.200;8.674;2022-08-21T02:53:32;9.38;;;2.53;;
45322;SDS011;31382;50.200;8.674;2022-08-21T02:58:39;7.32;;;3.17;;
45322;SDS011;31382;50.200;8.674;2022-08-21T03:03:43;4.70;;;2.85;;
45322;SDS011;31382;50.200;8.674;2022-08-21T03:08:45;7.75;;;3.00;;
45322;SDS011;31382;50.200;8.674;2022-08-21T03:13:48;6.95;;;3.05;;
45322;SDS011;31382;50.200;8.674;2022-08-21T03:18:49;6.45;;;3.33;;
45322;SDS011;31382;50.200;8.674;2022-08-21T03:23:51;5.70;;;2.30;;
45322;SDS011;31382;50.200;8.674;2022-08-21T03:28:55;5.60;;;2.80;;
45322;SDS011;31382;50.200;8.674;2022-08-21T03:33:58;8.00;;;3.10;;
45322;SDS011;31382;50.200;8.674;2022-08-21T03:39:00;6.40;;;3.10;;
45322;SDS011;31382;50.200;8.674;2022-08-21T03:44:02;4.90;;;2.65;;
45322;SDS011;31382;50.200;8.674;2022-08-21T03:49:04;6.25;;;3.53;;
45322;SDS011;31382;50.200;8.674;2022-08-21T03:54:05;7.60;;;4.30;;
45322;SDS011;31382;50.200;8.674;2022-08-21T03:59:07;7.40;;;3.75;;
45322;SDS011;31382;50.200;8.674;2022-08-21T04:04:09;12.20;;;3.97;;
45322;SDS011;31382;50.200;8.674;2022-08-21T04:09:13;7.75;;;3.40;;
45322;SDS011;31382;50.200;8.674;2022-08-21T04:14:15;7.60;;;3.60;;
45322;SDS011;31382;50.200;8.674;2022-08-21T04:19:18;25.08;;;7.05;;
45322;SDS011;31382;50.200;8.674;2022-08-21T04:24:20;11.88;;;5.10;;
45322;SDS011;31382;50.200;8.674;2022-08-21T04:29:21;9.48;;;3.83;;
45322;SDS011;31382;50.200;8.674;2022-08-21T04:34:23;7.28;;;4.00;;
45322;SDS011;31382;50.200;8.674;2022-08-21T04:39:25;6.95;;;3.90;;
45322;SDS011;31382;50.200;8.674;2022-08-21T04:44:29;5.93;;;3.15;;
45322;SDS011;31382;50.200;8.674;2022-08-21T04:49:32;5.07;;;3.33;;
45322;SDS011;31382;50.200;8.674;2022-08-21T04:54:34;6.93;;;3.30;;
45322;SDS011;31382;50.200;8.674;2022-08-21T04:59:43;8.45;;;3.47;;
45322;SDS011;31382;50.200;8.674;2022-08-21T05:04:52;9.27;;;3.95;;
45322;SDS011;31382;50.200;8.674;2022-08-21T05:09:56;9.40;;;3.70;;
45322;SDS011;31382;50.200;8.674;2022-08-21T05:14:59;9.63;;;3.50;;
45322;SDS011;31382;50.200;8.674;2022-08-21T05:20:01;6.90;;;3.72;;
45322;SDS011;31382;50.200;8.674;2022-08-21T05:25:04;4.28;;;3.30;;
45322;SDS011;31382;50.200;8.674;2022-08-21T05:30:11;10.57;;;4.18;;
45322;SDS011;31382;50.200;8.674;2022-08-21T05:35:12;5.95;;;4.18;;
45322;SDS011;31382;50.200;8.674;2022-08-21T05:40:14;7.45;;;3.65;;
45322;SDS011;31382;50.200;8.674;2022-08-21T05:45:23;10.00;;;3.78;;
45322;SDS011;31382;50.200;8.674;2022-08-21T05:50:44;6.40;;;3.30;;
45322;SDS011;31382;50.200;8.674;2022-08-21T05:55:47;7.97;;;3.72;;
45322;SDS011;31382;50.200;8.674;2022-08-21T06:00:50;11.55;;;4.50;;
45322;SDS011;31382;50.200;8.674;2022-08-21T06:05:52;10.07;;;3.80;;
45322;SDS011;31382;50.200;8.674;2022-08-21T06:10:56;12.27;;;4.72;;
45322;SDS011;31382;50.200;8.674;2022-08-21T06:16:03;6.68;;;3.63;;
45322;SDS011;31382;50.200;8.674;2022-08-21T06:21:10;9.40;;;4.07;;
45322;SDS011;31382;50.200;8.674;2022-08-21T06:26:12;7.72;;;3.67;;
45322;SDS011;31382;50.200;8.674;2022-08-21T06:31:18;6.30;;;3.60;;
45322;SDS011;31382;50.200;8.674;2022-08-21T06:36:22;8.98;;;3.65;;
45322;SDS011;31382;50.200;8.674;2022-08-21T06:41:24;9.02;;;4.15;;
45322;SDS011;31382;50.200;8.674;2022-08-21T06:46:28;6.88;;;3.90;;
45322;SDS011;31382;50.200;8.674;2022-08-21T06:51:30;11.50;;;4.00;;
45322;SDS011;31382;50.200;8.674;2022-08-21T06:56:32;8.00;;;4.30;;
45322;SDS011;31382;50.200;8.674;2022-08-21T07:01:36;5.53;;;3.60;;
45322;SDS011;31382;50.200;8.674;2022-08-21T07:06:37;6.25;;;3.30;;
45322;SDS011;31382;50.200;8.674;2022-08-21T07:11:39;6.72;;;3.90;;
45322;SDS011;31382;50.200;8.674;2022-08-21T07:16:48;6.50;;;3.30;;
45322;SDS011;31382;50.200;8.674;2022-08-21T07:21:50;10.50;;;3.47;;
45322;SDS011;31382;50.200;8.674;2022-08-21T07:26:52;7.93;;;3.22;;
45322;SDS011;31382;50.200;8.674;2022-08-21T07:31:53;10.10;;;3.88;;
45322;SDS011;31382;50.200;8.674;2022-08-21T07:36:56;7.07;;;3.33;;
45322;SDS011;31382;50.200;8.674;2022-08-21T07:42:06;6.15;;;3.75;;
45322;SDS011;31382;50.200;8.674;2022-08-21T07:47:08;6.90;;;4.22;;
45322;SDS011;31382;50.200;8.674;2022-08-21T07:52:10;9.65;;;4.32;;
45322;SDS011;31382;50.200;8.674;2022-08-21T07:57:12;6.57;;;3.28;;
45322;SDS011;31382;50.200;8.674;2022-08-21T08:07:46;4.65;;;3.42;;
45322;SDS011;31382;50.200;8.674;2022-08-21T08:12:49;7.05;;;3.65;;
45322;SDS011;31382;50.200;8.674;2022-08-21T08:17:52;13.23;;;3.63;;
45322;SDS011;31382;50.200;8.674;2022-08-21T08:22:55;6.13;;;3.75;;
45322;SDS011;31382;50.200;8.674;2022-08-21T08:27:57;11.65;;;4.15;;
45322;SDS011;31382;50.200;8.674;2022-08-21T08:32:59;7.30;;;3.60;;
45322;SDS011;31382;50.200;8.674;2022-08-21T08:38:01;6.78;;;3.25;;
45322;SDS011;31382;50.200;8.674;2022-08-21T08:43:03;7.18;;;4.03;;
45322;SDS011;31382;50.200;8.674;2022-08-21T08:48:08;6.70;;;3.05;;
45322;SDS011;31382;50.200;8.674;2022-08-21T08:53:16;8.45;;;3.40;;
45322;SDS011;31382;50.200;8.674;2022-08-21T08:58:33;6.22;;;2.72;;
45322;SDS011;31382;50.200;8.674;2022-08-21T09:03:40;6.45;;;2.53;;
45322;SDS011;31382;50.200;8.674;2022-08-21T09:14:02;3.35;;;1.65;;
45322;SDS011;31382;50.200;8.674;2022-08-21T09:19:26;5.85;;;1.92;;
45322;SDS011;31382;50.200;8.674;2022-08-21T09:24:40;7.13;;;1.77;;
45322;SDS011;31382;50.200;8.674;2022-08-21T09:29:54;4.47;;;1.67;;
45322;SDS011;31382;50.200;8.674;2022-08-21T09:45:37;4.18;;;1.83;;
45322;SDS011;31382;50.200;8.674;2022-08-21T09:50:42;9.40;;;2.55;;
45322;SDS011;31382;50.200;8.674;2022-08-21T09:55:48;7.18;;;2.33;;
45322;SDS011;31382;50.200;8.674;2022-08-21T10:01:16;4.65;;;1.42;;
45322;SDS011;31382;50.200;8.674;2022-08-21T10:06:24;5.53;;;2.03;;
45322;SDS011;31382;50.200;8.674;2022-08-21T10:27:36;5.15;;;1.45;;
45322;SDS011;31382;50.200;8.674;2022-08-21T10:32:52;3.78;;;1.08;;
45322;SDS011;31382;50.200;8.674;2022-08-21T10:38:21;4.43;;;1.13;;
45322;SDS011;31382;50.200;8.674;2022-08-21T10:44:06;2.50;;;1.00;;
45322;SDS011;31382;50.200;8.674;2022-08-21T10:49:16;4.43;;;0.90;;
45322;SDS011;31382;50.200;8.674;2022-08-21T10:54:34;5.25;;;0.93;;
45322;SDS011;31382;50.200;8.674;2022-08-21T10:59:52;4.75;;;0.75;;
45322;SDS011;31382;50.200;8.674;2022-08-21T11:05:09;8.13;;;0.85;;
45322;SDS011;31382;50.200;8.674;2022-08-21T11:20:40;1.95;;;1.00;;
45322;SDS011;31382;50.200;8.674;2022-08-21T11:25:58;1.80;;;0.70;;
45322;SDS011;31382;50.200;8.674;2022-08-21T11:37:07;3.00;;;0.88;;
45322;SDS011;31382;50.200;8.674;2022-08-21T11:42:43;3.90;;;0.73;;
45322;SDS011;31382;50.200;8.674;2022-08-21T11:53:20;2.90;;;0.70;;
45322;SDS011;31382;50.200;8.674;2022-08-21T11:58:32;7.07;;;0.82;;
45322;SDS011;31382;50.200;8.674;2022-08-21T12:04:31;2.25;;;0.57;;
45322;SDS011;31382;50.200;8.674;2022-08-21T12:09:29;3.08;;;1.08;;
45322;SDS011;31382;50.200;8.674;2022-08-21T12:19:58;2.30;;;0.93;;
45322;SDS011;31382;50.200;8.674;2022-08-21T12:25:10;1.65;;;0.50;;
45322;SDS011;31382;50.200;8.674;2022-08-21T12:35:37;1.60;;;0.60;;
45322;SDS011;31382;50.200;8.674;2022-08-21T12:40:42;2.47;;;0.60;;
45322;SDS011;31382;50.200;8.674;2022-08-21T12:45:49;2.65;;;0.55;;
45322;SDS011;31382;50.200;8.674;2022-08-21T12:51:05;4.25;;;0.50;;
45322;SDS011;31382;50.200;8.674;2022-08-21T12:56:13;4.90;;;0.60;;
45322;SDS011;31382;50.200;8.674;2022-08-21T13:01:19;2.93;;;0.50;;
45322;SDS011;31382;50.200;8.674;2022-08-21T13:06:25;1.33;;;0.70;;
45322;SDS011;31382;50.200;8.674;2022-08-21T13:11:30;3.07;;;0.40;;
45322;SDS011;31382;50.200;8.674;2022-08-21T13:16:34;4.80;;;1.33;;
45322;SDS011;31382;50.200;8.674;2022-08-21T13:21:40;5.00;;;0.70;;
45322;SDS011;31382;50.200;8.674;2022-08-21T13:26:44;2.75;;;0.63;;
45322;SDS011;31382;50.200;8.674;2022-08-21T13:31:48;1.45;;;0.40;;
45322;SDS011;31382;50.200;8.674;2022-08-21T13:36:54;1.75;;;0.50;;
45322;SDS011;31382;50.200;8.674;2022-08-21T13:42:00;3.08;;;0.32;;
45322;SDS011;31382;50.200;8.674;2022-08-21T13:47:06;0.77;;;0.30;;
45322;SDS011;31382;50.200;8.674;2022-08-21T13:52:17;2.15;;;0.40;;
45322;SDS011;31382;50.200;8.674;2022-08-21T13:57:31;6.15;;;0.45;;
45322;SDS011;31382;50.200;8.674;2022-08-21T14:02:37;2.90;;;0.40;;
45322;SDS011;31382;50.200;8.674;2022-08-21T14:07:41;1.35;;;0.40;;
45322;SDS011;31382;50.200;8.674;2022-08-21T14:12:51;0.85;;;0.30;;
45322;SDS011;31382;50.200;8.674;2022-08-21T14:18:12;1.92;;;1.10;;
45322;SDS011;31382;50.200;8.674;2022-08-21T14:23:25;1.25;;;0.28;;
45322;SDS011;31382;50.200;8.674;2022-08-21T14:28:29;1.38;;;0.40;;
45322;SDS011;31382;50.200;8.674;2022-08-21T14:33:34;1.05;;;0.30;;
45322;SDS011;31382;50.200;8.674;2022-08-21T14:38:37;2.78;;;0.32;;
45322;SDS011;31382;50.200;8.674;2022-08-21T14:43:40;1.65;;;0.30;;
45322;SDS011;31382;50.200;8.674;2022-08-21T14:48:43;0.75;;;0.30;;
45322;SDS011;31382;50.200;8.674;2022-08-21T14:53:44;1.00;;;0.30;;
45322;SDS011;31382;50.200;8.674;2022-08-21T14:58:48;2.97;;;0.30;;
45322;SDS011;31382;50.200;8.674;2022-08-21T15:03:52;0.70;;;0.30;;
45322;SDS011;31382;50.200;8.674;2022-08-21T15:08:54;1.90;;;0.30;;
45322;SDS011;31382;50.200;8.674;2022-08-21T15:13:56;2.10;;;0.40;;
45322;SDS011;31382;50.200;8.674;2022-08-21T15:19:03;2.08;;;0.20;;
45322;SDS011;31382;50.200;8.674;2022-08-21T15:24:05;1.23;;;0.35;;
45322;SDS011;31382;50.200;8.674;2022-08-21T15:29:07;1.05;;;0.30;;
45322;SDS011;31382;50.200;8.674;2022-08-21T15:34:10;1.45;;;0.35;;
45322;SDS011;31382;50.200;8.674;2022-08-21T15:39:12;3.03;;;0.95;;
45322;SDS011;31382;50.200;8.674;2022-08-21T15:44:14;3.42;;;0.30;;
45322;SDS011;31382;50.200;8.674;2022-08-21T15:49:17;0.95;;;0.30;;
45322;SDS011;31382;50.200;8.674;2022-08-21T15:54:18;4.95;;;0.32;;
45322;SDS011;31382;50.200;8.674;2022-08-21T15:59:20;0.47;;;0.30;;
45322;SDS011;31382;50.200;8.674;2022-08-21T16:04:24;4.43;;;0.40;;
45322;SDS011;31382;50.200;8.674;2022-08-21T16:14:30;2.92;;;0.40;;
45322;SDS011;31382;50.200;8.674;2022-08-21T16:19:34;2.92;;;0.40;;
45322;SDS011;31382;50.200;8.674;2022-08-21T16:24:37;2.58;;;0.30;;
45322;SDS011;31382;50.200;8.674;2022-08-21T16:29:40;2.15;;;0.30;;
45322;SDS011;31382;50.200;8.674;2022-08-21T16:34:44;0.30;;;0.20;;
45322;SDS011;31382;50.200;8.674;2022-08-21T16:39:47;1.20;;;0.30;;
45322;SDS011;31382;50.200;8.674;2022-08-21T16:44:51;3.15;;;0.20;;
45322;SDS011;31382;50.200;8.674;2022-08-21T16:49:54;2.42;;;0.20;;
45322;SDS011;31382;50.200;8.674;2022-08-21T16:54:55;1.02;;;0.20;;
45322;SDS011;31382;50.200;8.674;2022-08-21T16:59:57;1.42;;;0.30;;
45322;SDS011;31382;50.200;8.674;2022-08-21T17:04:59;0.75;;;0.30;;
45322;SDS011;31382;50.200;8.674;2022-08-21T17:10:03;0.77;;;0.28;;
45322;SDS011;31382;50.200;8.674;2022-08-21T17:15:09;4.75;;;0.20;;
45322;SDS011;31382;50.200;8.674;2022-08-21T17:20:21;2.08;;;0.45;;
45322;SDS011;31382;50.200;8.674;2022-08-21T17:25:24;0.95;;;0.20;;
45322;SDS011;31382;50.200;8.674;2022-08-21T17:30:27;0.98;;;0.20;;
45322;SDS011;31382;50.200;8.674;2022-08-21T17:35:28;1.95;;;0.20;;
45322;SDS011;31382;50.200;8.674;2022-08-21T17:40:30;1.00;;;0.35;;
45322;SDS011;31382;50.200;8.674;2022-08-21T17:45:36;0.65;;;0.40;;
45322;SDS011;31382;50.200;8.674;2022-08-21T17:50:39;4.80;;;0.30;;
45322;SDS011;31382;50.200;8.674;2022-08-21T17:55:41;0.98;;;0.20;;
45322;SDS011;31382;50.200;8.674;2022-08-21T18:00:42;1.42;;;0.30;;
45322;SDS011;31382;50.200;8.674;2022-08-21T18:05:47;2.45;;;0.30;;
45322;SDS011;31382;50.200;8.674;2022-08-21T18:10:50;1.17;;;0.30;;
45322;SDS011;31382;50.200;8.674;2022-08-21T18:15:52;1.55;;;0.30;;
45322;SDS011;31382;50.200;8.674;2022-08-21T18:20:55;4.57;;;0.40;;
45322;SDS011;31382;50.200;8.674;2022-08-21T18:25:58;3.83;;;0.65;;
45322;SDS011;31382;50.200;8.674;2022-08-21T18:30:59;2.05;;;0.40;;
45322;SDS011;31382;50.200;8.674;2022-08-21T18:36:01;2.35;;;0.38;;
45322;SDS011;31382;50.200;8.674;2022-08-21T18:41:04;4.28;;;0.35;;
45322;SDS011;31382;50.200;8.674;2022-08-21T18:46:10;1.40;;;0.30;;
45322;SDS011;31382;50.200;8.674;2022-08-21T18:51:12;2.08;;;0.40;;
45322;SDS011;31382;50.200;8.674;2022-08-21T18:56:14;3.70;;;0.30;;
45322;SDS011;31382;50.200;8.674;2022-08-21T19:01:16;2.92;;;0.38;;
45322;SDS011;31382;50.200;8.674;2022-08-21T19:06:18;6.00;;;0.40;;
45322;SDS011;31382;50.200;8.674;2022-08-21T19:11:20;3.42;;;0.30;;
45322;SDS011;31382;50.200;8.674;2022-08-21T19:16:25;1.17;;;0.55;;
45322;SDS011;31382;50.200;8.674;2022-08-21T19:21:27;1.63;;;0.63;;
45322;SDS011;31382;50.200;8.674;2022-08-21T19:26:29;1.77;;;0.40;;
45322;SDS011;31382;50.200;8.674;2022-08-21T19:31:37;0.50;;;0.30;;
45322;SDS011;31382;50.200;8.674;2022-08-21T19:36:41;1.52;;;0.40;;
45322;SDS011;31382;50.200;8.674;2022-08-21T19:41:45;1.65;;;0.30;;
45322;SDS011;31382;50.200;8.674;2022-08-21T19:46:51;0.65;;;0.28;;
45322;SDS011;31382;50.200;8.674;2022-08-21T19:51:56;5.00;;;0.40;;
45322;SDS011;31382;50.200;8.674;2022-08-21T19:57:00;4.88;;;0.50;;
45322;SDS011;31382;50.200;8.674;2022-08-21T20:02:05;4.60;;;0.40;;
45322;SDS011;31382;50.200;8.674;2022-08-21T20:07:07;6.00;;;0.60;;
45322;SDS011;31382;50.200;8.674;2022-08-21T20:12:08;3.67;;;0.50;;
45322;SDS011;31382;50.200;8.674;2022-08-21T20:17:15;3.30;;;0.30;;
45322;SDS011;31382;50.200;8.674;2022-08-21T20:22:18;3.97;;;0.40;;
45322;SDS011;31382;50.200;8.674;2022-08-21T20:27:23;2.10;;;0.80;;
45322;SDS011;31382;50.200;8.674;2022-08-21T20:32:28;0.77;;;0.30;;
45322;SDS011;31382;50.200;8.674;2022-08-21T20:37:32;0.70;;;0.32;;
45322;SDS011;31382;50.200;8.674;2022-08-21T20:42:38;1.20;;;0.60;;
45322;SDS011;31382;50.200;8.674;2022-08-21T20:47:45;2.55;;;0.50;;
45322;SDS011;31382;50.200;8.674;2022-08-21T20:52:54;4.15;;;0.40;;
45322;SDS011;31382;50.200;8.674;2022-08-21T20:58:10;1.85;;;0.40;;
45322;SDS011;31382;50.200;8.674;2022-08-21T21:03:37;1.35;;;0.25;;
45322;SDS011;31382;50.200;8.674;2022-08-21T21:09:00;3.42;;;0.30;;
45322;SDS011;31382;50.200;8.674;2022-08-21T21:14:21;0.90;;;0.30;;
45322;SDS011;31382;50.200;8.674;2022-08-21T21:30:59;1.23;;;0.45;;
45322;SDS011;31382;50.200;8.674;2022-08-21T21:48:20;1.65;;;0.20;;
45322;SDS011;31382;50.200;8.674;2022-08-21T22:04:12;0.40;;;0.13;;
45322;SDS011;31382;50.200;8.674;2022-08-21T22:09:36;1.27;;;0.50;;
45322;SDS011;31382;50.200;8.674;2022-08-21T22:14:43;1.60;;;0.25;;
45322;SDS011;31382;50.200;8.674;2022-08-21T22:19:46;1.05;;;0.20;;
45322;SDS011;31382;50.200;8.674;2022-08-21T22:24:53;1.20;;;0.30;;
45322;SDS011;31382;50.200;8.674;2022-08-21T22:30:09;1.17;;;0.20;;
45322;SDS011;31382;50.200;8.674;2022-08-21T22:35:18;3.67;;;0.32;;
45322;SDS011;31382;50.200;8.674;2022-08-21T22:40:24;1.13;;;0.20;;
45322;SDS011;31382;50.200;8.674;2022-08-21T22:45:30;1.45;;;0.20;;
45322;SDS011;31382;50.200;8.674;2022-08-21T22:50:35;3.70;;;0.20;;
45322;SDS011;31382;50.200;8.674;2022-08-21T22:55:44;1.73;;;0.30;;
45322;SDS011;31382;50.200;8.674;2022-08-21T23:01:28;3.67;;;0.28;;
45322;SDS011;31382;50.200;8.674;2022-08-21T23:06:33;2.65;;;0.45;;
45322;SDS011;31382;50.200;8.674;2022-08-21T23:12:24;1.05;;;0.25;;
45322;SDS011;31382;50.200;8.674;2022-08-21T23:23:22;0.50;;;0.15;;
45322;SDS011;31382;50.200;8.674;2022-08-21T23:28:42;2.33;;;0.28;;
45322;SDS011;31382;50.200;8.674;2022-08-21T23:50:00;1.48;;;0.20;;
45322;SDS011;31382;50.200;8.674;2022-08-21T23:55:30;1.98;;;0.25;;
